McGuffey, OH (45859)

1:38 PM EST on February 11, 2016 (GMT -0500)
Lima Allen County | | Change Station
CLOSE
Current Station
Airport
Location: Lima,
Elevation: 974 ft
Nearby Weather Stations

Elev 974 ft 40.71 °N, 84.03 °W | Updated 45 minutes ago

Overcast
Overcast
19 °F
Feels Like 8 °F
N
9
Wind Variable Wind from NW

Today
High -- | Low -- °F
--% Chance of Precip.
Yesterday
High -- | Low -- °F
Precip. -- in
Pressure 30.28 in
Visibility -9999.0 miles
Clouds Mostly Cloudy 3200 ft
Overcast 4500 ft
Windchill 8 °F
Dew Point 8 °F
Humidity 62%
Rainfall 0.00 in
Snow Depth Not available.
7:34 AM 6:04 PM
Waxing Crescent, 13% visible
METAR KAOH 111753Z AUTO 32008KT BKN032 OVC045 M07/M13 A3023 RMK AO2 SNB15E24 SLP252 P0000 60000 T10721133 11072 21100 50002 $
Pressure 30.28 in
Visibility -9999.0 miles
Clouds Mostly Cloudy 3200 ft
Overcast 4500 ft
Windchill 8 °F
Dew Point 8 °F
Humidity 62%
Rainfall 0.00 in
Snow Depth Not available.
7:34 AM 6:04 PM
Waxing Crescent, 13% visible
METAR KAOH 111753Z AUTO 32008KT BKN032 OVC045 M07/M13 A3023 RMK AO2 SNB15E24 SLP252 P0000 60000 T10721133 11072 21100 50002 $

10-Day Weather Forecast

Almanac

Astronomy

Feb. 11, 2016 Rise Set
Actual Time
Civil Twilight
Nautical Twilight
Astronomical Twilight
Moon
Length of Visible Light
Length of Day
Tomorrow will be .
, % of the Moon is Illuminated

Today's Extremes

State Highs State Lows

Community

WunderPhotos

Upload Photos

1,892,122 photos uploaded!

WunderBlog® & News

Nearby

Air Quality

  Air Quality AQ Index Pollutant
Not available.

Snow Depth

Station Depth Elevation

Earthquake Activity

City Distance Mag. Time & Date
Minimum magnitude displayed is 2.5.

Coastal Water Temperatures

Place Temperature

Stations

Nearby Weather Stations

Station Location Temp. Windchill Dew Point Humidity Wind Precip. Elev Updated Type
                   

Watches & Warnings

There are currently no watches in effect.